sensor_id;sensor_type;location;lat;lon;timestamp;P1;durP1;ratioP1;P2;durP2;ratioP2
26946;SDS011;14501;52.282;10.560;2023-08-01T00:02:10;3.60;;;2.17;;
26946;SDS011;14501;52.282;10.560;2023-08-01T00:04:36;2.67;;;1.92;;
26946;SDS011;14501;52.282;10.560;2023-08-01T00:07:02;6.25;;;1.85;;
26946;SDS011;14501;52.282;10.560;2023-08-01T00:09:27;4.55;;;2.20;;
26946;SDS011;14501;52.282;10.560;2023-08-01T00:11:53;6.95;;;2.15;;
26946;SDS011;14501;52.282;10.560;2023-08-01T00:14:19;6.53;;;2.63;;
26946;SDS011;14501;52.282;10.560;2023-08-01T00:16:45;4.93;;;2.92;;
26946;SDS011;14501;52.282;10.560;2023-08-01T00:19:11;5.97;;;2.85;;
26946;SDS011;14501;52.282;10.560;2023-08-01T00:21:37;6.53;;;2.95;;
26946;SDS011;14501;52.282;10.560;2023-08-01T00:24:03;5.32;;;2.70;;
26946;SDS011;14501;52.282;10.560;2023-08-01T00:26:30;6.95;;;2.83;;
26946;SDS011;14501;52.282;10.560;2023-08-01T00:28:56;4.93;;;2.85;;
26946;SDS011;14501;52.282;10.560;2023-08-01T00:31:21;8.27;;;3.42;;
26946;SDS011;14501;52.282;10.560;2023-08-01T00:33:47;7.03;;;3.50;;
26946;SDS011;14501;52.282;10.560;2023-08-01T00:36:12;10.07;;;4.30;;
26946;SDS011;14501;52.282;10.560;2023-08-01T00:38:38;7.97;;;3.80;;
26946;SDS011;14501;52.282;10.560;2023-08-01T00:41:04;6.88;;;3.28;;
26946;SDS011;14501;52.282;10.560;2023-08-01T00:43:29;6.63;;;3.35;;
26946;SDS011;14501;52.282;10.560;2023-08-01T00:45:55;5.43;;;3.03;;
26946;SDS011;14501;52.282;10.560;2023-08-01T00:48:26;5.40;;;2.88;;
26946;SDS011;14501;52.282;10.560;2023-08-01T00:50:52;3.85;;;2.67;;
26946;SDS011;14501;52.282;10.560;2023-08-01T00:53:18;5.75;;;2.95;;
26946;SDS011;14501;52.282;10.560;2023-08-01T00:55:44;6.30;;;3.05;;
26946;SDS011;14501;52.282;10.560;2023-08-01T00:58:10;5.43;;;2.95;;
26946;SDS011;14501;52.282;10.560;2023-08-01T01:00:36;4.80;;;2.80;;
26946;SDS011;14501;52.282;10.560;2023-08-01T01:03:01;8.93;;;3.10;;
26946;SDS011;14501;52.282;10.560;2023-08-01T01:05:27;5.18;;;3.55;;
26946;SDS011;14501;52.282;10.560;2023-08-01T01:07:58;5.50;;;3.17;;
26946;SDS011;14501;52.282;10.560;2023-08-01T01:10:24;4.93;;;2.97;;
26946;SDS011;14501;52.282;10.560;2023-08-01T01:12:50;5.18;;;3.10;;
26946;SDS011;14501;52.282;10.560;2023-08-01T01:15:15;6.72;;;4.25;;
26946;SDS011;14501;52.282;10.560;2023-08-01T01:17:41;10.85;;;4.53;;
26946;SDS011;14501;52.282;10.560;2023-08-01T01:20:07;6.38;;;3.38;;
26946;SDS011;14501;52.282;10.560;2023-08-01T01:22:32;8.70;;;2.97;;
26946;SDS011;14501;52.282;10.560;2023-08-01T01:24:59;7.13;;;2.97;;
26946;SDS011;14501;52.282;10.560;2023-08-01T01:27:26;7.72;;;3.10;;
26946;SDS011;14501;52.282;10.560;2023-08-01T01:29:53;7.30;;;2.72;;
26946;SDS011;14501;52.282;10.560;2023-08-01T01:32:20;6.70;;;3.53;;
26946;SDS011;14501;52.282;10.560;2023-08-01T01:34:46;6.90;;;3.58;;
26946;SDS011;14501;52.282;10.560;2023-08-01T01:37:12;8.73;;;4.25;;
26946;SDS011;14501;52.282;10.560;2023-08-01T01:39:38;15.70;;;4.90;;
26946;SDS011;14501;52.282;10.560;2023-08-01T01:42:03;11.30;;;6.32;;
26946;SDS011;14501;52.282;10.560;2023-08-01T01:44:29;11.45;;;6.70;;
26946;SDS011;14501;52.282;10.560;2023-08-01T01:46:55;10.05;;;6.72;;
26946;SDS011;14501;52.282;10.560;2023-08-01T01:49:20;11.43;;;6.38;;
26946;SDS011;14501;52.282;10.560;2023-08-01T01:51:46;13.38;;;6.45;;
26946;SDS011;14501;52.282;10.560;2023-08-01T01:54:11;10.57;;;6.57;;
26946;SDS011;14501;52.282;10.560;2023-08-01T01:56:37;8.65;;;5.70;;
26946;SDS011;14501;52.282;10.560;2023-08-01T01:59:02;10.60;;;5.45;;
26946;SDS011;14501;52.282;10.560;2023-08-01T02:01:28;7.57;;;5.00;;
26946;SDS011;14501;52.282;10.560;2023-08-01T02:03:53;7.97;;;4.50;;
26946;SDS011;14501;52.282;10.560;2023-08-01T02:06:19;7.07;;;4.30;;
26946;SDS011;14501;52.282;10.560;2023-08-01T02:08:45;6.40;;;3.67;;
26946;SDS011;14501;52.282;10.560;2023-08-01T02:11:10;6.20;;;3.60;;
26946;SDS011;14501;52.282;10.560;2023-08-01T02:13:36;8.32;;;3.15;;
26946;SDS011;14501;52.282;10.560;2023-08-01T02:16:01;5.70;;;2.88;;
26946;SDS011;14501;52.282;10.560;2023-08-01T02:18:27;5.07;;;2.95;;
26946;SDS011;14501;52.282;10.560;2023-08-01T02:20:53;6.25;;;2.88;;
26946;SDS011;14501;52.282;10.560;2023-08-01T02:23:18;8.55;;;2.80;;
26946;SDS011;14501;52.282;10.560;2023-08-01T02:25:44;7.20;;;2.88;;
26946;SDS011;14501;52.282;10.560;2023-08-01T02:28:09;8.85;;;3.30;;
26946;SDS011;14501;52.282;10.560;2023-08-01T02:30:35;6.20;;;2.67;;
26946;SDS011;14501;52.282;10.560;2023-08-01T02:33:01;3.30;;;2.38;;
26946;SDS011;14501;52.282;10.560;2023-08-01T02:35:27;7.32;;;3.17;;
26946;SDS011;14501;52.282;10.560;2023-08-01T02:37:54;6.70;;;3.30;;
26946;SDS011;14501;52.282;10.560;2023-08-01T02:40:20;7.03;;;3.75;;
26946;SDS011;14501;52.282;10.560;2023-08-01T02:42:45;6.65;;;3.17;;
26946;SDS011;14501;52.282;10.560;2023-08-01T02:45:11;7.20;;;3.45;;
26946;SDS011;14501;52.282;10.560;2023-08-01T02:47:36;5.53;;;3.22;;
26946;SDS011;14501;52.282;10.560;2023-08-01T02:50:02;5.07;;;2.88;;
26946;SDS011;14501;52.282;10.560;2023-08-01T02:52:28;6.65;;;2.90;;
26946;SDS011;14501;52.282;10.560;2023-08-01T02:54:54;3.05;;;2.17;;
26946;SDS011;14501;52.282;10.560;2023-08-01T02:57:20;6.63;;;2.90;;
26946;SDS011;14501;52.282;10.560;2023-08-01T02:59:45;4.70;;;2.20;;
26946;SDS011;14501;52.282;10.560;2023-08-01T03:02:11;5.65;;;2.22;;
26946;SDS011;14501;52.282;10.560;2023-08-01T03:04:36;4.60;;;2.20;;
26946;SDS011;14501;52.282;10.560;2023-08-01T03:07:02;6.50;;;2.03;;
26946;SDS011;14501;52.282;10.560;2023-08-01T03:09:28;5.78;;;1.88;;
26946;SDS011;14501;52.282;10.560;2023-08-01T03:11:53;3.45;;;2.20;;
26946;SDS011;14501;52.282;10.560;2023-08-01T03:14:19;3.42;;;2.30;;
26946;SDS011;14501;52.282;10.560;2023-08-01T03:16:44;3.17;;;2.30;;
26946;SDS011;14501;52.282;10.560;2023-08-01T03:19:10;3.72;;;2.10;;
26946;SDS011;14501;52.282;10.560;2023-08-01T03:21:35;3.83;;;2.20;;
26946;SDS011;14501;52.282;10.560;2023-08-01T03:24:02;2.97;;;2.08;;
26946;SDS011;14501;52.282;10.560;2023-08-01T03:26:28;6.72;;;2.50;;
26946;SDS011;14501;52.282;10.560;2023-08-01T03:28:54;4.45;;;2.65;;
26946;SDS011;14501;52.282;10.560;2023-08-01T03:31:21;4.63;;;2.20;;
26946;SDS011;14501;52.282;10.560;2023-08-01T03:33:47;3.15;;;2.22;;
26946;SDS011;14501;52.282;10.560;2023-08-01T03:36:13;5.47;;;1.90;;
26946;SDS011;14501;52.282;10.560;2023-08-01T03:38:38;4.20;;;2.10;;
26946;SDS011;14501;52.282;10.560;2023-08-01T03:41:04;6.32;;;2.40;;
26946;SDS011;14501;52.282;10.560;2023-08-01T03:43:30;6.10;;;2.92;;
26946;SDS011;14501;52.282;10.560;2023-08-01T03:45:56;6.35;;;3.03;;
26946;SDS011;14501;52.282;10.560;2023-08-01T03:48:21;4.60;;;2.38;;
26946;SDS011;14501;52.282;10.560;2023-08-01T03:50:47;8.20;;;2.70;;
26946;SDS011;14501;52.282;10.560;2023-08-01T03:53:13;6.47;;;3.22;;
26946;SDS011;14501;52.282;10.560;2023-08-01T03:55:38;9.45;;;4.13;;
26946;SDS011;14501;52.282;10.560;2023-08-01T03:58:04;9.30;;;3.85;;
26946;SDS011;14501;52.282;10.560;2023-08-01T04:00:30;12.13;;;4.47;;
26946;SDS011;14501;52.282;10.560;2023-08-01T04:02:58;7.18;;;3.58;;
26946;SDS011;14501;52.282;10.560;2023-08-01T04:05:24;8.57;;;3.63;;
26946;SDS011;14501;52.282;10.560;2023-08-01T04:07:49;5.90;;;3.00;;
26946;SDS011;14501;52.282;10.560;2023-08-01T04:10:15;7.80;;;3.35;;
26946;SDS011;14501;52.282;10.560;2023-08-01T04:12:41;5.88;;;3.30;;
26946;SDS011;14501;52.282;10.560;2023-08-01T04:15:07;5.53;;;3.45;;
26946;SDS011;14501;52.282;10.560;2023-08-01T04:17:34;8.13;;;3.38;;
26946;SDS011;14501;52.282;10.560;2023-08-01T04:19:59;11.73;;;3.00;;
26946;SDS011;14501;52.282;10.560;2023-08-01T04:22:25;4.20;;;2.80;;
26946;SDS011;14501;52.282;10.560;2023-08-01T04:24:50;5.70;;;2.95;;
26946;SDS011;14501;52.282;10.560;2023-08-01T04:27:16;6.00;;;2.97;;
26946;SDS011;14501;52.282;10.560;2023-08-01T04:29:42;6.25;;;3.00;;
26946;SDS011;14501;52.282;10.560;2023-08-01T04:32:07;5.43;;;3.08;;
26946;SDS011;14501;52.282;10.560;2023-08-01T04:34:33;6.40;;;2.72;;
26946;SDS011;14501;52.282;10.560;2023-08-01T04:36:58;5.07;;;2.75;;
26946;SDS011;14501;52.282;10.560;2023-08-01T04:39:24;6.32;;;2.80;;
26946;SDS011;14501;52.282;10.560;2023-08-01T04:41:49;5.00;;;2.20;;
26946;SDS011;14501;52.282;10.560;2023-08-01T04:44:15;4.35;;;2.03;;
26946;SDS011;14501;52.282;10.560;2023-08-01T04:46:41;4.78;;;2.05;;
26946;SDS011;14501;52.282;10.560;2023-08-01T04:49:07;3.08;;;2.13;;
26946;SDS011;14501;52.282;10.560;2023-08-01T04:51:32;6.60;;;2.30;;
26946;SDS011;14501;52.282;10.560;2023-08-01T04:53:58;7.78;;;1.90;;
26946;SDS011;14501;52.282;10.560;2023-08-01T04:56:24;5.63;;;2.30;;
26946;SDS011;14501;52.282;10.560;2023-08-01T04:58:49;5.68;;;2.22;;
26946;SDS011;14501;52.282;10.560;2023-08-01T05:01:15;6.55;;;2.22;;
26946;SDS011;14501;52.282;10.560;2023-08-01T05:03:40;4.97;;;2.33;;
26946;SDS011;14501;52.282;10.560;2023-08-01T05:06:06;8.00;;;1.83;;
26946;SDS011;14501;52.282;10.560;2023-08-01T05:08:32;2.33;;;1.70;;
26946;SDS011;14501;52.282;10.560;2023-08-01T05:10:58;4.85;;;1.90;;
26946;SDS011;14501;52.282;10.560;2023-08-01T05:13:23;5.78;;;2.15;;
26946;SDS011;14501;52.282;10.560;2023-08-01T05:15:49;5.63;;;1.50;;
26946;SDS011;14501;52.282;10.560;2023-08-01T05:18:17;1.98;;;1.40;;
26946;SDS011;14501;52.282;10.560;2023-08-01T05:20:44;2.58;;;1.27;;
26946;SDS011;14501;52.282;10.560;2023-08-01T05:23:09;1.50;;;1.15;;
26946;SDS011;14501;52.282;10.560;2023-08-01T05:25:35;3.53;;;1.13;;
26946;SDS011;14501;52.282;10.560;2023-08-01T05:28:01;2.17;;;1.40;;
26946;SDS011;14501;52.282;10.560;2023-08-01T05:30:26;1.48;;;1.00;;
26946;SDS011;14501;52.282;10.560;2023-08-01T05:32:52;1.48;;;0.93;;
26946;SDS011;14501;52.282;10.560;2023-08-01T05:35:18;1.00;;;0.82;;
26946;SDS011;14501;52.282;10.560;2023-08-01T05:37:45;0.70;;;0.70;;
26946;SDS011;14501;52.282;10.560;2023-08-01T05:40:10;1.73;;;0.68;;
26946;SDS011;14501;52.282;10.560;2023-08-01T05:42:36;2.05;;;0.75;;
26946;SDS011;14501;52.282;10.560;2023-08-01T05:45:02;0.95;;;0.52;;
26946;SDS011;14501;52.282;10.560;2023-08-01T05:47:29;1.98;;;0.50;;
26946;SDS011;14501;52.282;10.560;2023-08-01T05:49:54;3.03;;;0.90;;
26946;SDS011;14501;52.282;10.560;2023-08-01T05:52:20;0.80;;;0.70;;
26946;SDS011;14501;52.282;10.560;2023-08-01T05:54:45;0.80;;;0.60;;
26946;SDS011;14501;52.282;10.560;2023-08-01T05:57:11;2.50;;;0.55;;
26946;SDS011;14501;52.282;10.560;2023-08-01T05:59:37;2.30;;;0.65;;
26946;SDS011;14501;52.282;10.560;2023-08-01T06:02:03;0.60;;;0.47;;
26946;SDS011;14501;52.282;10.560;2023-08-01T06:04:28;0.90;;;0.45;;
26946;SDS011;14501;52.282;10.560;2023-08-01T06:06:54;1.55;;;0.70;;
26946;SDS011;14501;52.282;10.560;2023-08-01T06:09:19;1.73;;;0.60;;
26946;SDS011;14501;52.282;10.560;2023-08-01T06:11:45;1.33;;;0.47;;
26946;SDS011;14501;52.282;10.560;2023-08-01T06:14:11;0.30;;;0.30;;
26946;SDS011;14501;52.282;10.560;2023-08-01T06:16:36;3.70;;;0.55;;
26946;SDS011;14501;52.282;10.560;2023-08-01T06:19:02;1.05;;;0.60;;
26946;SDS011;14501;52.282;10.560;2023-08-01T06:21:28;0.50;;;0.50;;
26946;SDS011;14501;52.282;10.560;2023-08-01T06:23:53;1.20;;;0.55;;
26946;SDS011;14501;52.282;10.560;2023-08-01T06:26:19;0.50;;;0.50;;
26946;SDS011;14501;52.282;10.560;2023-08-01T06:28:44;0.60;;;0.60;;
26946;SDS011;14501;52.282;10.560;2023-08-01T06:31:10;1.05;;;0.68;;
26946;SDS011;14501;52.282;10.560;2023-08-01T06:33:36;2.20;;;0.80;;
26946;SDS011;14501;52.282;10.560;2023-08-01T06:36:01;1.25;;;0.70;;
26946;SDS011;14501;52.282;10.560;2023-08-01T06:38:27;2.58;;;1.08;;
26946;SDS011;14501;52.282;10.560;2023-08-01T06:40:53;1.80;;;1.05;;
26946;SDS011;14501;52.282;10.560;2023-08-01T06:43:18;1.60;;;0.88;;
26946;SDS011;14501;52.282;10.560;2023-08-01T06:45:44;1.25;;;0.90;;
26946;SDS011;14501;52.282;10.560;2023-08-01T06:48:09;2.75;;;1.15;;
26946;SDS011;14501;52.282;10.560;2023-08-01T06:50:35;3.45;;;1.25;;
26946;SDS011;14501;52.282;10.560;2023-08-01T06:53:00;1.60;;;1.00;;
26946;SDS011;14501;52.282;10.560;2023-08-01T06:55:26;1.23;;;1.05;;
26946;SDS011;14501;52.282;10.560;2023-08-01T06:57:52;1.67;;;1.10;;
26946;SDS011;14501;52.282;10.560;2023-08-01T07:00:18;2.38;;;1.05;;
26946;SDS011;14501;52.282;10.560;2023-08-01T07:02:43;2.38;;;1.20;;
26946;SDS011;14501;52.282;10.560;2023-08-01T07:05:09;1.70;;;1.40;;
26946;SDS011;14501;52.282;10.560;2023-08-01T07:07:35;3.17;;;1.10;;
26946;SDS011;14501;52.282;10.560;2023-08-01T07:10:00;2.35;;;1.23;;
26946;SDS011;14501;52.282;10.560;2023-08-01T07:12:26;1.98;;;1.45;;
26946;SDS011;14501;52.282;10.560;2023-08-01T07:15:01;7.28;;;1.80;;
26946;SDS011;14501;52.282;10.560;2023-08-01T07:17:26;2.55;;;1.85;;
26946;SDS011;14501;52.282;10.560;2023-08-01T07:19:52;4.00;;;1.73;;
26946;SDS011;14501;52.282;10.560;2023-08-01T07:22:19;3.30;;;1.90;;
26946;SDS011;14501;52.282;10.560;2023-08-01T07:24:45;2.47;;;1.73;;
26946;SDS011;14501;52.282;10.560;2023-08-01T07:27:10;3.00;;;2.00;;
26946;SDS011;14501;52.282;10.560;2023-08-01T07:29:37;3.50;;;2.33;;
26946;SDS011;14501;52.282;10.560;2023-08-01T07:32:02;4.18;;;2.00;;
26946;SDS011;14501;52.282;10.560;2023-08-01T07:34:29;2.38;;;2.15;;
26946;SDS011;14501;52.282;10.560;2023-08-01T07:36:54;4.45;;;2.33;;
26946;SDS011;14501;52.282;10.560;2023-08-01T07:39:20;4.50;;;2.10;;
26946;SDS011;14501;52.282;10.560;2023-08-01T07:41:45;5.05;;;2.10;;
26946;SDS011;14501;52.282;10.560;2023-08-01T07:44:11;2.22;;;1.58;;
26946;SDS011;14501;52.282;10.560;2023-08-01T07:46:37;2.55;;;1.70;;
26946;SDS011;14501;52.282;10.560;2023-08-01T07:49:02;3.22;;;1.75;;
26946;SDS011;14501;52.282;10.560;2023-08-01T07:51:28;1.73;;;1.63;;
26946;SDS011;14501;52.282;10.560;2023-08-01T07:53:54;3.88;;;1.52;;
26946;SDS011;14501;52.282;10.560;2023-08-01T07:56:20;3.03;;;1.48;;
26946;SDS011;14501;52.282;10.560;2023-08-01T07:58:45;2.55;;;1.92;;
26946;SDS011;14501;52.282;10.560;2023-08-01T08:01:11;3.42;;;1.80;;
26946;SDS011;14501;52.282;10.560;2023-08-01T08:03:37;5.53;;;1.90;;
26946;SDS011;14501;52.282;10.560;2023-08-01T08:06:02;4.32;;;1.88;;
26946;SDS011;14501;52.282;10.560;2023-08-01T08:08:29;4.95;;;2.33;;
26946;SDS011;14501;52.282;10.560;2023-08-01T08:10:55;5.60;;;2.83;;
26946;SDS011;14501;52.282;10.560;2023-08-01T08:13:20;7.70;;;3.50;;
26946;SDS011;14501;52.282;10.560;2023-08-01T08:15:46;7.22;;;3.80;;
26946;SDS011;14501;52.282;10.560;2023-08-01T08:18:12;5.80;;;3.72;;
26946;SDS011;14501;52.282;10.560;2023-08-01T08:20:42;9.20;;;3.83;;
26946;SDS011;14501;52.282;10.560;2023-08-01T08:23:09;9.13;;;3.97;;
26946;SDS011;14501;52.282;10.560;2023-08-01T08:25:35;6.82;;;4.10;;
26946;SDS011;14501;52.282;10.560;2023-08-01T08:28:01;7.50;;;4.10;;
26946;SDS011;14501;52.282;10.560;2023-08-01T08:30:27;6.40;;;4.10;;
26946;SDS011;14501;52.282;10.560;2023-08-01T08:32:53;6.25;;;3.50;;
26946;SDS011;14501;52.282;10.560;2023-08-01T08:35:18;10.75;;;3.55;;
26946;SDS011;14501;52.282;10.560;2023-08-01T08:37:44;6.43;;;3.83;;
26946;SDS011;14501;52.282;10.560;2023-08-01T08:40:09;7.68;;;3.78;;
26946;SDS011;14501;52.282;10.560;2023-08-01T08:42:37;6.65;;;3.80;;
26946;SDS011;14501;52.282;10.560;2023-08-01T08:45:03;5.30;;;3.45;;
26946;SDS011;14501;52.282;10.560;2023-08-01T08:47:30;4.90;;;3.50;;
26946;SDS011;14501;52.282;10.560;2023-08-01T08:50:00;7.70;;;3.80;;
26946;SDS011;14501;52.282;10.560;2023-08-01T08:52:26;9.48;;;4.15;;
26946;SDS011;14501;52.282;10.560;2023-08-01T08:54:52;7.60;;;3.97;;
26946;SDS011;14501;52.282;10.560;2023-08-01T08:57:20;8.00;;;3.90;;
26946;SDS011;14501;52.282;10.560;2023-08-01T08:59:46;11.70;;;4.15;;
26946;SDS011;14501;52.282;10.560;2023-08-01T09:02:12;7.45;;;4.13;;
26946;SDS011;14501;52.282;10.560;2023-08-01T09:04:40;10.35;;;4.38;;
26946;SDS011;14501;52.282;10.560;2023-08-01T09:07:09;5.90;;;3.22;;
26946;SDS011;14501;52.282;10.560;2023-08-01T09:09:36;8.73;;;3.03;;
26946;SDS011;14501;52.282;10.560;2023-08-01T09:12:02;5.82;;;3.05;;
26946;SDS011;14501;52.282;10.560;2023-08-01T09:14:28;7.55;;;3.50;;
26946;SDS011;14501;52.282;10.560;2023-08-01T09:16:54;6.05;;;3.58;;
26946;SDS011;14501;52.282;10.560;2023-08-01T09:19:21;4.38;;;2.85;;
26946;SDS011;14501;52.282;10.560;2023-08-01T09:21:48;8.50;;;3.13;;
26946;SDS011;14501;52.282;10.560;2023-08-01T09:24:18;6.43;;;3.00;;
26946;SDS011;14501;52.282;10.560;2023-08-01T09:26:45;4.53;;;2.88;;
26946;SDS011;14501;52.282;10.560;2023-08-01T09:29:12;6.80;;;3.03;;
26946;SDS011;14501;52.282;10.560;2023-08-01T09:31:39;7.13;;;2.80;;
26946;SDS011;14501;52.282;10.560;2023-08-01T09:34:06;6.53;;;2.83;;
26946;SDS011;14501;52.282;10.560;2023-08-01T09:36:44;7.90;;;2.88;;
26946;SDS011;14501;52.282;10.560;2023-08-01T09:39:15;7.18;;;2.75;;
26946;SDS011;14501;52.282;10.560;2023-08-01T09:41:44;6.47;;;2.97;;
26946;SDS011;14501;52.282;10.560;2023-08-01T09:44:11;5.68;;;2.75;;
26946;SDS011;14501;52.282;10.560;2023-08-01T09:46:37;4.07;;;2.65;;
26946;SDS011;14501;52.282;10.560;2023-08-01T09:49:06;5.38;;;2.47;;
26946;SDS011;14501;52.282;10.560;2023-08-01T09:51:47;7.57;;;2.70;;
26946;SDS011;14501;52.282;10.560;2023-08-01T09:54:15;5.60;;;2.75;;
26946;SDS011;14501;52.282;10.560;2023-08-01T09:56:41;5.18;;;2.47;;
26946;SDS011;14501;52.282;10.560;2023-08-01T09:59:09;5.80;;;2.60;;
26946;SDS011;14501;52.282;10.560;2023-08-01T10:01:35;5.95;;;2.80;;
26946;SDS011;14501;52.282;10.560;2023-08-01T10:04:05;5.82;;;2.70;;
26946;SDS011;14501;52.282;10.560;2023-08-01T10:06:34;3.92;;;2.60;;
26946;SDS011;14501;52.282;10.560;2023-08-01T10:09:02;4.70;;;2.25;;
26946;SDS011;14501;52.282;10.560;2023-08-01T10:11:29;5.78;;;2.05;;
26946;SDS011;14501;52.282;10.560;2023-08-01T10:13:59;3.33;;;1.85;;
26946;SDS011;14501;52.282;10.560;2023-08-01T10:16:25;5.32;;;2.00;;
26946;SDS011;14501;52.282;10.560;2023-08-01T10:18:51;5.28;;;2.58;;
26946;SDS011;14501;52.282;10.560;2023-08-01T10:21:18;4.05;;;2.17;;
26946;SDS011;14501;52.282;10.560;2023-08-01T10:23:46;3.15;;;1.80;;
26946;SDS011;14501;52.282;10.560;2023-08-01T10:26:12;3.45;;;2.17;;
26946;SDS011;14501;52.282;10.560;2023-08-01T10:28:39;5.13;;;2.38;;
26946;SDS011;14501;52.282;10.560;2023-08-01T10:31:13;5.45;;;1.92;;
26946;SDS011;14501;52.282;10.560;2023-08-01T10:33:41;5.75;;;1.67;;
26946;SDS011;14501;52.282;10.560;2023-08-01T10:36:14;2.92;;;1.77;;
26946;SDS011;14501;52.282;10.560;2023-08-01T10:38:51;6.05;;;2.05;;
26946;SDS011;14501;52.282;10.560;2023-08-01T10:41:28;4.07;;;2.03;;
26946;SDS011;14501;52.282;10.560;2023-08-01T10:44:04;4.55;;;2.05;;
26946;SDS011;14501;52.282;10.560;2023-08-01T10:46:50;4.65;;;2.15;;
26946;SDS011;14501;52.282;10.560;2023-08-01T10:49:38;5.18;;;1.90;;
26946;SDS011;14501;52.282;10.560;2023-08-01T10:54:55;3.97;;;1.90;;
26946;SDS011;14501;52.282;10.560;2023-08-01T10:57:20;4.18;;;2.10;;
26946;SDS011;14501;52.282;10.560;2023-08-01T10:59:46;3.65;;;1.80;;
26946;SDS011;14501;52.282;10.560;2023-08-01T11:02:19;3.65;;;1.65;;
26946;SDS011;14501;52.282;10.560;2023-08-01T11:04:54;6.47;;;1.77;;
26946;SDS011;14501;52.282;10.560;2023-08-01T11:07:20;3.65;;;2.33;;
26946;SDS011;14501;52.282;10.560;2023-08-01T11:09:46;4.53;;;1.83;;
26946;SDS011;14501;52.282;10.560;2023-08-01T11:12:11;3.75;;;2.20;;
26946;SDS011;14501;52.282;10.560;2023-08-01T11:14:37;6.72;;;1.85;;
26946;SDS011;14501;52.282;10.560;2023-08-01T11:17:03;4.25;;;1.90;;
26946;SDS011;14501;52.282;10.560;2023-08-01T11:19:29;7.88;;;3.17;;
26946;SDS011;14501;52.282;10.560;2023-08-01T11:21:55;3.30;;;1.42;;
26946;SDS011;14501;52.282;10.560;2023-08-01T11:24:23;4.78;;;2.70;;
26946;SDS011;14501;52.282;10.560;2023-08-01T11:26:50;6.38;;;2.20;;
26946;SDS011;14501;52.282;10.560;2023-08-01T11:29:18;3.95;;;1.95;;
26946;SDS011;14501;52.282;10.560;2023-08-01T11:34:20;3.67;;;1.70;;
26946;SDS011;14501;52.282;10.560;2023-08-01T11:36:46;3.08;;;1.92;;
26946;SDS011;14501;52.282;10.560;2023-08-01T11:39:12;3.83;;;1.98;;
26946;SDS011;14501;52.282;10.560;2023-08-01T11:41:39;5.07;;;1.73;;
26946;SDS011;14501;52.282;10.560;2023-08-01T11:44:05;5.72;;;1.75;;
26946;SDS011;14501;52.282;10.560;2023-08-01T11:46:34;2.22;;;1.70;;
26946;SDS011;14501;52.282;10.560;2023-08-01T11:49:03;3.25;;;1.98;;
26946;SDS011;14501;52.282;10.560;2023-08-01T11:51:37;4.38;;;1.58;;
26946;SDS011;14501;52.282;10.560;2023-08-01T11:54:07;2.75;;;1.50;;
26946;SDS011;14501;52.282;10.560;2023-08-01T11:56:35;6.45;;;1.30;;
26946;SDS011;14501;52.282;10.560;2023-08-01T11:59:07;4.93;;;1.38;;
26946;SDS011;14501;52.282;10.560;2023-08-01T12:01:40;2.70;;;1.83;;
26946;SDS011;14501;52.282;10.560;2023-08-01T12:04:07;2.65;;;1.58;;
26946;SDS011;14501;52.282;10.560;2023-08-01T12:06:33;3.55;;;1.50;;
26946;SDS011;14501;52.282;10.560;2023-08-01T12:09:09;4.53;;;1.70;;
26946;SDS011;14501;52.282;10.560;2023-08-01T12:11:36;5.80;;;1.20;;
26946;SDS011;14501;52.282;10.560;2023-08-01T12:14:03;2.17;;;1.30;;
26946;SDS011;14501;52.282;10.560;2023-08-01T12:16:39;8.52;;;1.70;;
26946;SDS011;14501;52.282;10.560;2023-08-01T12:19:10;3.90;;;1.52;;
26946;SDS011;14501;52.282;10.560;2023-08-01T12:21:41;1.80;;;1.40;;
26946;SDS011;14501;52.282;10.560;2023-08-01T12:24:06;4.63;;;1.70;;
26946;SDS011;14501;52.282;10.560;2023-08-01T12:26:32;3.75;;;1.60;;
26946;SDS011;14501;52.282;10.560;2023-08-01T12:28:57;4.43;;;1.77;;
26946;SDS011;14501;52.282;10.560;2023-08-01T12:31:23;3.75;;;1.50;;
26946;SDS011;14501;52.282;10.560;2023-08-01T12:33:49;2.83;;;1.50;;
26946;SDS011;14501;52.282;10.560;2023-08-01T12:36:15;4.32;;;1.88;;
26946;SDS011;14501;52.282;10.560;2023-08-01T12:38:41;3.85;;;1.83;;
26946;SDS011;14501;52.282;10.560;2023-08-01T12:41:07;3.67;;;1.75;;
26946;SDS011;14501;52.282;10.560;2023-08-01T12:43:33;2.25;;;1.58;;
26946;SDS011;14501;52.282;10.560;2023-08-01T12:45:58;2.95;;;1.60;;
26946;SDS011;14501;52.282;10.560;2023-08-01T12:48:25;4.65;;;1.60;;
26946;SDS011;14501;52.282;10.560;2023-08-01T12:50:51;4.28;;;1.75;;
26946;SDS011;14501;52.282;10.560;2023-08-01T12:53:18;5.47;;;1.85;;
26946;SDS011;14501;52.282;10.560;2023-08-01T12:55:44;2.60;;;1.52;;
26946;SDS011;14501;52.282;10.560;2023-08-01T12:58:10;3.47;;;1.73;;
26946;SDS011;14501;52.282;10.560;2023-08-01T13:00:36;6.03;;;2.28;;
26946;SDS011;14501;52.282;10.560;2023-08-01T13:03:01;2.97;;;1.60;;
26946;SDS011;14501;52.282;10.560;2023-08-01T13:05:27;3.92;;;1.77;;
26946;SDS011;14501;52.282;10.560;2023-08-01T13:07:53;4.05;;;1.77;;
26946;SDS011;14501;52.282;10.560;2023-08-01T13:10:18;3.15;;;1.45;;
26946;SDS011;14501;52.282;10.560;2023-08-01T13:12:44;12.45;;;2.00;;
26946;SDS011;14501;52.282;10.560;2023-08-01T13:15:10;5.15;;;2.38;;
26946;SDS011;14501;52.282;10.560;2023-08-01T13:17:35;3.25;;;1.80;;
26946;SDS011;14501;52.282;10.560;2023-08-01T13:20:01;5.53;;;2.03;;
26946;SDS011;14501;52.282;10.560;2023-08-01T13:22:26;3.28;;;1.70;;
26946;SDS011;14501;52.282;10.560;2023-08-01T13:24:52;3.83;;;1.95;;
26946;SDS011;14501;52.282;10.560;2023-08-01T13:27:17;2.78;;;2.03;;
26946;SDS011;14501;52.282;10.560;2023-08-01T13:29:43;5.07;;;2.50;;
26946;SDS011;14501;52.282;10.560;2023-08-01T13:32:08;6.85;;;2.20;;
26946;SDS011;14501;52.282;10.560;2023-08-01T13:34:34;5.35;;;2.53;;
26946;SDS011;14501;52.282;10.560;2023-08-01T13:37:00;3.80;;;2.28;;
26946;SDS011;14501;52.282;10.560;2023-08-01T13:39:25;7.20;;;2.42;;
26946;SDS011;14501;52.282;10.560;2023-08-01T13:41:51;3.97;;;1.85;;
26946;SDS011;14501;52.282;10.560;2023-08-01T13:44:16;3.35;;;1.88;;
26946;SDS011;14501;52.282;10.560;2023-08-01T13:46:42;2.90;;;1.83;;
26946;SDS011;14501;52.282;10.560;2023-08-01T13:49:07;4.45;;;1.65;;
26946;SDS011;14501;52.282;10.560;2023-08-01T13:51:33;4.00;;;1.77;;
26946;SDS011;14501;52.282;10.560;2023-08-01T13:53:59;5.78;;;1.65;;
26946;SDS011;14501;52.282;10.560;2023-08-01T13:56:25;6.50;;;1.73;;
26946;SDS011;14501;52.282;10.560;2023-08-01T13:58:51;2.08;;;1.42;;
26946;SDS011;14501;52.282;10.560;2023-08-01T14:01:17;3.92;;;1.52;;
26946;SDS011;14501;52.282;10.560;2023-08-01T14:03:44;3.17;;;1.90;;
26946;SDS011;14501;52.282;10.560;2023-08-01T14:06:13;1.98;;;1.50;;
26946;SDS011;14501;52.282;10.560;2023-08-01T14:08:40;4.80;;;2.00;;
26946;SDS011;14501;52.282;10.560;2023-08-01T14:11:07;2.63;;;1.90;;
26946;SDS011;14501;52.282;10.560;2023-08-01T14:13:34;2.30;;;1.70;;
26946;SDS011;14501;52.282;10.560;2023-08-01T14:16:00;2.10;;;1.40;;
26946;SDS011;14501;52.282;10.560;2023-08-01T14:18:26;1.10;;;1.10;;
26946;SDS011;14501;52.282;10.560;2023-08-01T14:20:52;4.20;;;1.30;;
26946;SDS011;14501;52.282;10.560;2023-08-01T14:23:18;1.70;;;1.20;;
26946;SDS011;14501;52.282;10.560;2023-08-01T14:25:45;4.28;;;1.92;;
26946;SDS011;14501;52.282;10.560;2023-08-01T14:28:10;2.17;;;1.38;;
26946;SDS011;14501;52.282;10.560;2023-08-01T14:30:36;3.55;;;1.40;;
26946;SDS011;14501;52.282;10.560;2023-08-01T14:33:04;2.45;;;1.70;;
26946;SDS011;14501;52.282;10.560;2023-08-01T14:35:31;2.45;;;1.92;;